Weather at Anantara Sir Bani Yas Island Al Yamm Villa Resort Heliport

Public forecast

Using degrees Celsius for public forecast. Weather courtesy of forecast.io.

Closest aviation weather report (METAR) to Anantara Sir Bani Yas Island Al Yamm Villa Resort Heliport

Closest report is Hamad International Airport, 79.5 nm (147.2 km) NW.

2024/06/19 05:00 (retrieved 12 minutes ago)

OTHH 190500Z 26006KT 240V310 CAVOK 40/10 Q1000 NOSIG

Closest aviation forecast (TAF) to Anantara Sir Bani Yas Island Al Yamm Villa Resort Heliport

Forecast is more than 6 hours old.

Closest forecast is Hamad International Airport, 79.5 nm (147.2 km) NW.

2024/06/18 18:00 (retrieved 11 hours ago)

TAF OTHH 181706Z 1818/1924 30008KT CAVOK TEMPO 1818/1822 36007KT TEMPO 1818/1900 VRB03KT BECMG 1907/1909 05009KT